createdAt,value
2022-08-21T00:02:28.933Z,92192.16
2022-08-21T00:04:58.943Z,92179.66
2022-08-21T00:07:29.280Z,92183.31
2022-08-21T00:10:00.905Z,92178.56
2022-08-21T00:12:30.697Z,92178.84
2022-08-21T00:15:00.823Z,92183.59
2022-08-21T00:17:30.661Z,92184.75
2022-08-21T00:20:00.691Z,92187.25
2022-08-21T00:22:30.607Z,92187.25
2022-08-21T00:25:02.217Z,92172.41
2022-08-21T00:27:32.071Z,92179.78
2022-08-21T00:30:02.062Z,92184.53
2022-08-21T00:32:32.549Z,92190.44
2022-08-21T00:35:02.483Z,92184.19
2022-08-21T00:37:32.406Z,92184.78
2022-08-21T00:40:08.621Z,92196.91
2022-08-21T00:42:39.009Z,92196.72
2022-08-21T00:45:12.003Z,92208.25
2022-08-21T00:47:42.240Z,92204.59
2022-08-21T00:52:39.065Z,92187.50
2022-08-21T00:55:12.779Z,92188.13
2022-08-21T00:57:48.722Z,92184.66
2022-08-21T01:00:25.244Z,92177.19
2022-08-21T01:02:55.291Z,92179.16
2022-08-21T01:05:25.361Z,92185.81
2022-08-21T01:07:58.476Z,92188.06
2022-08-21T01:10:28.902Z,92194.72
2022-08-21T01:13:01.222Z,92196.25
2022-08-21T01:15:36.545Z,92192.13
2022-08-21T01:18:09.317Z,92193.56
2022-08-21T01:20:44.344Z,92196.56
2022-08-21T01:23:17.729Z,92185.44
2022-08-21T01:25:47.802Z,92186.97
2022-08-21T01:28:18.520Z,92192.03
2022-08-21T01:30:48.901Z,92181.34
2022-08-21T01:33:18.801Z,92169.25
2022-08-21T01:35:48.979Z,92164.28
2022-08-21T01:38:20.700Z,92172.41
2022-08-21T01:40:50.643Z,92184.19
2022-08-21T01:43:23.889Z,92185.38
2022-08-21T01:46:02.758Z,92178.06
2022-08-21T01:48:32.624Z,92171.91
2022-08-21T01:51:03.211Z,92182.41
2022-08-21T01:53:37.174Z,92179.91
2022-08-21T01:56:13.820Z,92174.31
2022-08-21T01:58:45.358Z,92176.09
2022-08-21T02:01:16.057Z,92169.50
2022-08-21T02:03:46.034Z,92163.47
2022-08-21T02:06:19.238Z,92168.34
2022-08-21T02:08:51.961Z,92162.19
2022-08-21T02:11:22.518Z,92167.75
2022-08-21T02:13:52.466Z,92160.53
2022-08-21T02:16:22.301Z,92160.16
2022-08-21T02:18:52.360Z,92168.97
2022-08-21T02:21:22.314Z,92174.06
2022-08-21T02:23:53.824Z,92181.25
2022-08-21T02:26:23.785Z,92178.72
2022-08-21T02:28:53.801Z,92183.94
2022-08-21T02:31:23.693Z,92187.06
2022-08-21T02:33:53.961Z,92193.53
2022-08-21T02:36:24.523Z,92190.94
2022-08-21T02:38:55.944Z,92205.16
2022-08-21T02:41:26.584Z,92212.03
2022-08-21T02:43:56.641Z,92211.66
2022-08-21T02:46:26.644Z,92228.28
2022-08-21T02:48:56.583Z,92234.91
2022-08-21T02:51:27.227Z,92227.69
2022-08-21T02:53:58.664Z,92236.50
2022-08-21T02:56:30.780Z,92236.97
2022-08-21T02:59:01.564Z,92245.91
2022-08-21T03:01:31.559Z,92244.66
2022-08-21T03:04:01.405Z,92247.19
2022-08-21T03:06:31.527Z,92256.44
2022-08-21T03:09:03.063Z,92258.44
2022-08-21T03:11:33.091Z,92255.47
2022-08-21T03:14:03.159Z,92257.44
2022-08-21T03:16:35.141Z,92260.72
2022-08-21T03:19:05.834Z,92264.31
2022-08-21T03:21:35.842Z,92257.84
2022-08-21T03:24:08.108Z,92256.94
2022-08-21T03:26:37.850Z,92263.19
2022-08-21T03:29:10.469Z,92259.81
2022-08-21T03:31:40.606Z,92263.38
2022-08-21T03:34:10.321Z,92270.16
2022-08-21T03:36:40.278Z,92275.09
2022-08-21T03:39:11.746Z,92276.50
2022-08-21T03:41:41.707Z,92280.44
2022-08-21T03:44:11.670Z,92285.25
2022-08-21T03:46:41.644Z,92272.84
2022-08-21T03:49:11.642Z,92272.22
2022-08-21T03:53:36.703Z,92268.28
2022-08-21T03:56:08.258Z,92274.03
2022-08-21T03:58:39.692Z,92275.97
2022-08-21T04:01:09.727Z,92277.59
2022-08-21T04:03:40.823Z,92282.56
2022-08-21T04:06:11.548Z,92279.81
2022-08-21T04:08:44.263Z,92278.03
2022-08-21T04:11:14.186Z,92274.28
2022-08-21T04:13:44.646Z,92271.06
2022-08-21T04:16:15.158Z,92269.09
2022-08-21T04:18:45.681Z,92268.84
2022-08-21T04:21:16.035Z,92271.03
2022-08-21T04:23:49.820Z,92273.13
2022-08-21T04:26:19.820Z,92267.03
2022-08-21T04:28:49.685Z,92261.13
2022-08-21T04:31:19.684Z,92269.34
2022-08-21T04:33:49.906Z,92276.03
2022-08-21T04:36:23.002Z,92272.69
2022-08-21T04:38:56.039Z,92273.50
2022-08-21T04:41:28.200Z,92281.00
2022-08-21T04:43:58.641Z,92287.91
2022-08-21T04:46:28.468Z,92291.44
2022-08-21T04:48:58.739Z,92282.50
2022-08-21T04:51:34.048Z,92283.50
2022-08-21T04:54:11.401Z,92282.84
2022-08-21T04:56:50.158Z,92284.03
2022-08-21T04:59:24.447Z,92286.69
2022-08-21T05:01:56.203Z,92280.03
2022-08-21T05:04:29.389Z,92281.63
2022-08-21T05:07:02.864Z,92278.97
2022-08-21T05:09:34.852Z,92278.56
2022-08-21T05:12:06.664Z,92270.22
2022-08-21T05:14:36.941Z,92268.41
2022-08-21T05:17:07.666Z,92259.63
2022-08-21T05:19:37.540Z,92259.78
2022-08-21T05:22:07.723Z,92255.69
2022-08-21T05:24:40.034Z,92254.41
2022-08-21T05:27:09.825Z,92252.63
2022-08-21T05:29:39.801Z,92246.88
2022-08-21T05:32:13.984Z,92246.69
2022-08-21T05:34:44.021Z,92245.22
2022-08-21T05:37:15.438Z,92242.19
2022-08-21T05:40:21.690Z,92243.19
2022-08-21T05:42:36.840Z,92238.84
2022-08-21T05:45:07.880Z,92246.66
2022-08-21T05:47:37.819Z,92243.25
2022-08-21T05:50:09.063Z,92243.19
2022-08-21T05:52:39.001Z,92241.69
2022-08-21T05:55:11.435Z,92233.16
2022-08-21T05:57:42.558Z,92237.19
2022-08-21T06:00:14.846Z,92234.22
2022-08-21T06:02:44.470Z,92232.78
2022-08-21T06:05:14.585Z,92231.16
2022-08-21T06:07:55.323Z,92233.16
2022-08-21T06:10:26.660Z,92232.91
2022-08-21T06:12:57.875Z,92236.31
2022-08-21T06:15:27.859Z,92235.25
2022-08-21T06:17:58.944Z,92236.69
2022-08-21T06:20:29.544Z,92243.13
2022-08-21T06:22:59.612Z,92240.25
2022-08-21T06:25:31.561Z,92233.72
2022-08-21T06:28:05.862Z,92240.63
2022-08-21T06:30:36.799Z,92236.06
2022-08-21T06:33:08.339Z,92239.94
2022-08-21T06:35:41.614Z,92236.06
2022-08-21T06:38:12.180Z,92241.06
2022-08-21T06:40:47.114Z,92239.63
2022-08-21T06:43:20.502Z,92239.69
2022-08-21T06:45:50.383Z,92236.78
2022-08-21T06:48:20.439Z,92237.06
2022-08-21T06:53:35.802Z,92235.00
2022-08-21T06:56:07.269Z,92240.28
2022-08-21T06:58:37.145Z,92239.09
2022-08-21T07:01:07.715Z,92230.97
2022-08-21T07:03:41.460Z,92237.00
2022-08-21T07:06:13.701Z,92242.94
2022-08-21T07:08:45.320Z,92243.66
2022-08-21T07:11:21.660Z,92236.88
2022-08-21T07:13:54.123Z,92237.22
2022-08-21T07:16:24.583Z,92229.81
2022-08-21T07:18:54.424Z,92235.31
2022-08-21T07:21:26.158Z,92231.91
2022-08-21T07:23:57.903Z,92231.34
2022-08-21T07:26:28.568Z,92224.50
2022-08-21T07:28:58.845Z,92223.81
2022-08-21T07:31:30.799Z,92224.53
2022-08-21T07:34:01.424Z,92225.53
2022-08-21T07:36:31.277Z,92227.13
2022-08-21T07:39:04.881Z,92219.16
2022-08-21T07:41:35.781Z,92221.88
2022-08-21T07:44:06.582Z,92215.13
2022-08-21T07:46:36.843Z,92209.19
2022-08-21T07:49:06.763Z,92213.56
2022-08-21T07:51:36.851Z,92209.63
2022-08-21T07:54:08.176Z,92204.56
2022-08-21T07:56:37.924Z,92203.00
2022-08-21T07:59:07.587Z,92203.44
2022-08-21T08:01:37.417Z,92203.94
2022-08-21T08:04:07.499Z,92196.25
2022-08-21T08:06:37.663Z,92198.47
2022-08-21T08:09:08.849Z,92197.38
2022-08-21T08:11:41.810Z,92195.13
2022-08-21T08:14:11.628Z,92192.44
2022-08-21T08:16:41.441Z,92185.25
2022-08-21T08:19:11.176Z,92180.84
2022-08-21T08:21:42.268Z,92185.16
2022-08-21T08:24:18.982Z,92176.69
2022-08-21T08:26:53.684Z,92178.97
2022-08-21T08:29:24.271Z,92182.44
2022-08-21T08:31:54.361Z,92174.34
2022-08-21T08:34:25.691Z,92173.91
2022-08-21T08:36:56.183Z,92176.78
2022-08-21T08:39:29.687Z,92176.06
2022-08-21T08:42:32.250Z,92170.97
2022-08-21T08:45:05.720Z,92167.13
2022-08-21T08:47:40.652Z,92173.22
2022-08-21T08:50:18.594Z,92174.28
2022-08-21T08:52:55.110Z,92174.56
2022-08-21T08:55:35.848Z,92170.13
2022-08-21T08:58:06.467Z,92166.06
2022-08-21T09:00:37.282Z,92169.63
2022-08-21T09:03:07.388Z,92166.16
2022-08-21T09:05:49.443Z,92172.72
2022-08-21T09:08:45.053Z,92168.03
2022-08-21T09:11:29.486Z,92165.22
2022-08-21T09:14:16.118Z,92167.28
2022-08-21T09:16:56.965Z,92176.09
2022-08-21T09:19:49.585Z,92166.06
2022-08-21T09:22:31.673Z,92164.44
2022-08-21T09:25:13.969Z,92157.50
2022-08-21T09:27:44.862Z,92162.00
2022-08-21T09:30:15.705Z,92158.88
2022-08-21T09:32:46.002Z,92151.88
2022-08-21T09:35:18.734Z,92148.38
2022-08-21T09:37:56.572Z,92153.72
2022-08-21T09:40:35.444Z,92158.88
2022-08-21T09:43:15.084Z,92153.72
2022-08-21T09:45:47.611Z,92156.38
2022-08-21T09:48:22.362Z,92155.56
2022-08-21T09:53:36.424Z,92153.63
2022-08-21T09:56:36.260Z,92154.44
2022-08-21T09:59:23.363Z,92157.94
2022-08-21T10:01:56.386Z,92166.16
2022-08-21T10:04:32.946Z,92159.16
2022-08-21T10:07:14.004Z,92162.66
2022-08-21T10:09:45.726Z,92156.38
2022-08-21T10:12:25.358Z,92155.97
2022-08-21T10:15:11.202Z,92158.00
2022-08-21T10:30:00.338Z,92154.34
2022-08-21T10:32:50.754Z,92156.56
2022-08-21T10:35:31.741Z,92154.13
2022-08-21T10:39:11.817Z,92161.50
2022-08-21T10:42:04.629Z,92160.47
2022-08-21T10:44:43.994Z,92156.78
2022-08-21T10:47:24.494Z,92155.72
2022-08-21T10:50:02.553Z,92158.38
2022-08-21T10:52:59.958Z,92159.63
2022-08-21T10:55:34.732Z,92154.13
2022-08-21T10:58:12.730Z,92153.28
2022-08-21T11:00:48.020Z,92154.47
2022-08-21T11:03:24.334Z,92145.69
2022-08-21T11:05:57.375Z,92148.75
2022-08-21T11:08:33.674Z,92148.13
2022-08-21T11:11:11.105Z,92151.22
2022-08-21T11:13:48.079Z,92148.16
2022-08-21T11:16:26.512Z,92149.41
2022-08-21T11:19:05.374Z,92153.31
2022-08-21T11:21:45.482Z,92148.19
2022-08-21T11:24:31.279Z,92150.66
2022-08-21T11:27:09.203Z,92146.13
2022-08-21T11:29:42.353Z,92149.41
2022-08-21T11:32:44.878Z,92141.41
2022-08-21T11:35:22.354Z,92149.38
2022-08-21T11:38:09.830Z,92146.69
2022-08-21T11:41:15.355Z,92137.25
2022-08-21T11:43:49.673Z,92140.56
2022-08-21T11:46:34.390Z,92129.44
2022-08-21T11:49:26.345Z,92132.47
2022-08-21T11:52:10.602Z,92133.88
2022-08-21T11:54:47.246Z,92134.66
2022-08-21T11:57:24.345Z,92128.44
2022-08-21T12:00:04.180Z,92136.84
2022-08-21T12:02:39.173Z,92122.88
2022-08-21T12:05:12.353Z,92117.34
2022-08-21T12:07:45.457Z,92116.72
2022-08-21T12:10:22.279Z,92112.59
2022-08-21T12:12:52.053Z,92111.69
2022-08-21T12:15:31.284Z,92113.50
2022-08-21T12:18:04.540Z,92101.47
2022-08-21T12:20:50.201Z,92108.13
2022-08-21T12:23:30.826Z,92101.50
2022-08-21T12:26:25.994Z,92099.50
2022-08-21T12:29:15.274Z,92090.88
2022-08-21T12:31:59.627Z,92092.16
2022-08-21T12:34:38.054Z,92086.38
2022-08-21T12:37:18.113Z,92085.09
2022-08-21T12:39:54.204Z,92079.09
2022-08-21T12:42:27.287Z,92079.31
2022-08-21T12:45:01.363Z,92081.09
2022-08-21T12:47:36.325Z,92078.66
2022-08-21T12:53:44.973Z,92073.75
2022-08-21T12:56:16.938Z,92081.09
2022-08-21T12:58:49.334Z,92085.34
2022-08-21T13:01:24.856Z,92086.31
2022-08-21T13:04:04.962Z,92092.94
2022-08-21T13:06:42.640Z,92089.28
2022-08-21T13:09:18.145Z,92096.44
2022-08-21T13:11:50.157Z,92089.88
2022-08-21T13:14:34.600Z,92090.69
2022-08-21T13:17:09.774Z,92099.28
2022-08-21T13:19:39.453Z,92096.06
2022-08-21T13:22:34.583Z,92087.66
2022-08-21T13:27:41.243Z,92085.09
2022-08-21T13:30:15.592Z,92095.44
2022-08-21T13:32:50.022Z,92098.97
2022-08-21T13:35:23.324Z,92093.25
2022-08-21T13:37:54.428Z,92094.13
2022-08-21T13:40:31.430Z,92096.00
2022-08-21T13:43:03.314Z,92098.69
2022-08-21T13:45:35.455Z,92096.66
2022-08-21T13:48:07.563Z,92096.88
2022-08-21T13:50:40.320Z,92096.66
2022-08-21T13:53:25.075Z,92086.41
2022-08-21T13:56:00.363Z,92093.19
2022-08-21T13:58:33.731Z,92084.56
2022-08-21T14:01:06.598Z,92081.31
2022-08-21T14:03:40.738Z,92071.47
2022-08-21T14:06:19.134Z,92078.88
2022-08-21T14:08:55.896Z,92080.28
2022-08-21T14:11:28.178Z,92070.44
2022-08-21T14:14:04.973Z,92078.59
2022-08-21T14:16:49.315Z,92079.06
2022-08-21T14:19:24.304Z,92073.72
2022-08-21T14:21:55.535Z,92071.47
2022-08-21T14:24:35.763Z,92073.09
2022-08-21T14:27:10.984Z,92078.88
2022-08-21T14:29:44.599Z,92074.59
2022-08-21T14:32:24.444Z,92075.19
2022-08-21T14:34:55.262Z,92069.69
2022-08-21T14:37:28.802Z,92069.50
2022-08-21T14:39:58.380Z,92074.44
2022-08-21T14:42:29.539Z,92069.78
2022-08-21T14:45:03.812Z,92076.34
2022-08-21T14:47:33.359Z,92066.53
2022-08-21T14:50:02.774Z,92063.84
2022-08-21T14:52:32.056Z,92067.09
2022-08-21T14:55:01.493Z,92064.44
2022-08-21T14:57:34.477Z,92060.53
2022-08-21T15:00:04.119Z,92060.75
2022-08-21T15:02:33.502Z,92057.06
2022-08-21T15:05:02.945Z,92064.66
2022-08-21T15:07:32.385Z,92062.19
2022-08-21T15:10:01.938Z,92057.03
2022-08-21T15:12:35.799Z,92058.88
2022-08-21T15:15:06.864Z,92055.63
2022-08-21T15:17:36.425Z,92052.38
2022-08-21T15:20:08.811Z,92053.81
2022-08-21T15:22:38.286Z,92052.38
2022-08-21T15:25:08.825Z,92053.81
2022-08-21T15:27:39.806Z,92052.78
2022-08-21T15:30:11.038Z,92049.13
2022-08-21T15:32:40.536Z,92050.75
2022-08-21T15:35:10.691Z,92048.69
2022-08-21T15:37:40.112Z,92039.50
2022-08-21T15:40:11.635Z,92039.50
2022-08-21T15:42:44.231Z,92034.59
2022-08-21T15:45:15.618Z,92042.16
2022-08-21T15:47:48.262Z,92038.28
2022-08-21T15:53:39.535Z,92037.06
2022-08-21T15:56:13.094Z,92034.41
2022-08-21T15:58:42.754Z,92023.97
2022-08-21T16:01:12.325Z,92027.22
2022-08-21T16:03:42.438Z,92028.88
2022-08-21T16:06:12.404Z,92028.84
2022-08-21T16:08:43.698Z,92032.53
2022-08-21T16:11:14.335Z,92025.97
2022-08-21T16:13:46.597Z,92026.81
2022-08-21T16:16:20.731Z,92021.09
2022-08-21T16:18:51.477Z,92028.66
2022-08-21T16:21:22.494Z,92026.38
2022-08-21T16:23:53.423Z,92025.78
2022-08-21T16:26:23.831Z,92020.03
2022-08-21T16:28:58.107Z,92008.41
2022-08-21T16:31:28.550Z,92008.16
2022-08-21T16:34:00.047Z,92004.84
2022-08-21T16:36:30.115Z,92012.00
2022-08-21T16:39:03.362Z,92010.75
2022-08-21T16:41:37.082Z,92016.06
2022-08-21T16:44:08.677Z,92025.63
2022-08-21T16:46:43.627Z,92022.56
2022-08-21T16:49:13.176Z,92027.47
2022-08-21T16:51:43.681Z,92026.25
2022-08-21T16:54:15.373Z,92020.50
2022-08-21T16:56:47.754Z,92025.97
2022-08-21T16:59:17.908Z,92020.25
2022-08-21T17:01:48.343Z,92025.31
2022-08-21T17:04:17.796Z,92031.63
2022-08-21T17:06:47.287Z,92023.88
2022-08-21T17:09:18.137Z,92027.50
2022-08-21T17:11:50.955Z,92031.34
2022-08-21T17:14:24.122Z,92035.84
2022-08-21T17:16:57.578Z,92043.22
2022-08-21T17:19:27.096Z,92032.56
2022-08-21T17:21:56.755Z,92033.50
2022-08-21T17:24:27.741Z,92019.03
2022-08-21T17:26:57.945Z,92023.50
2022-08-21T17:29:36.554Z,92017.59
2022-08-21T17:32:11.330Z,92017.78
2022-08-21T17:34:42.021Z,92014.94
2022-08-21T17:37:11.522Z,92020.19
2022-08-21T17:39:42.444Z,92033.63
2022-08-21T17:42:16.325Z,92028.22
2022-08-21T17:44:48.543Z,92028.66
2022-08-21T17:47:18.115Z,92032.28
2022-08-21T17:49:47.932Z,92033.31
2022-08-21T17:52:17.534Z,92029.63
2022-08-21T17:54:48.385Z,92032.88
2022-08-21T17:57:24.122Z,92026.75
2022-08-21T17:59:58.069Z,92032.25
2022-08-21T18:02:28.163Z,92023.47
2022-08-21T18:04:57.834Z,92027.78
2022-08-21T18:07:32.762Z,92025.06
2022-08-21T18:10:06.216Z,92030.69
2022-08-21T18:12:36.377Z,92032.91
2022-08-21T18:15:08.335Z,92030.47
2022-08-21T18:17:37.893Z,92030.03
2022-08-21T18:20:09.892Z,92041.84
2022-08-21T18:22:39.291Z,92044.22
2022-08-21T18:25:11.615Z,92046.63
2022-08-21T18:27:42.798Z,92050.50
2022-08-21T18:30:14.533Z,92049.03
2022-08-21T18:32:44.622Z,92047.88
2022-08-21T18:35:15.746Z,92049.38
2022-08-21T18:37:45.931Z,92055.91
2022-08-21T18:40:17.185Z,92059.81
2022-08-21T18:42:55.212Z,92054.88
2022-08-21T18:45:26.272Z,92057.19
2022-08-21T18:47:58.896Z,92064.44
2022-08-21T18:53:36.305Z,92058.41
2022-08-21T18:56:07.310Z,92072.75
2022-08-21T18:58:58.652Z,92072.28
2022-08-21T19:01:28.580Z,92071.22
2022-08-21T19:03:58.193Z,92071.91
2022-08-21T19:06:27.840Z,92073.38
2022-08-21T19:09:01.634Z,92067.00
2022-08-21T19:11:31.634Z,92067.94
2022-08-21T19:14:01.505Z,92063.06
2022-08-21T19:16:31.719Z,92067.09
2022-08-21T19:19:04.037Z,92063.53
2022-08-21T19:21:34.898Z,92058.25
2022-08-21T19:24:17.393Z,92058.50
2022-08-21T19:26:48.240Z,92058.59
2022-08-21T19:29:22.380Z,92063.44
2022-08-21T19:32:06.954Z,92056.41
2022-08-21T19:34:38.835Z,92063.34
2022-08-21T19:37:08.450Z,92067.28
2022-08-21T19:39:46.481Z,92066.81
2022-08-21T19:42:21.930Z,92072.28
2022-08-21T19:44:57.402Z,92076.28
2022-08-21T19:47:29.237Z,92075.28
2022-08-21T19:50:04.327Z,92073.75
2022-08-21T19:52:51.316Z,92070.72
2022-08-21T19:55:38.439Z,92059.41
2022-08-21T19:58:25.789Z,92063.97
2022-08-21T20:00:55.429Z,92070.34
2022-08-21T20:03:24.825Z,92064.06
2022-08-21T20:05:54.410Z,92063.88
2022-08-21T20:08:28.055Z,92058.88
2022-08-21T20:13:52.038Z,92061.16
2022-08-21T20:16:23.084Z,92055.31
2022-08-21T20:18:53.149Z,92058.03
2022-08-21T20:21:22.563Z,92058.50
2022-08-21T20:23:52.671Z,92056.13
2022-08-21T20:26:24.415Z,92066.06
2022-08-21T20:28:55.544Z,92065.22
2022-08-21T20:31:26.916Z,92063.84
2022-08-21T20:33:57.924Z,92066.19
2022-08-21T20:36:28.052Z,92074.25
2022-08-21T20:38:57.494Z,92070.31
2022-08-21T20:41:30.674Z,92074.56
2022-08-21T20:44:01.502Z,92069.94
2022-08-21T20:46:35.061Z,92069.28
2022-08-21T20:49:04.780Z,92068.97
2022-08-21T20:51:41.154Z,92066.16
2022-08-21T20:54:22.522Z,92073.44
2022-08-21T20:56:59.676Z,92078.66
2022-08-21T20:59:47.498Z,92070.47
2022-08-21T21:02:35.719Z,92076.72
2022-08-21T21:05:22.730Z,92078.53
2022-08-21T21:08:03.457Z,92085.78
2022-08-21T21:10:40.385Z,92080.28
2022-08-21T21:13:21.899Z,92085.63
2022-08-21T21:15:56.578Z,92084.31
2022-08-21T21:18:36.802Z,92080.88
2022-08-21T21:21:16.979Z,92082.19
2022-08-21T21:23:54.596Z,92091.06
2022-08-21T21:26:32.358Z,92087.69
2022-08-21T21:29:19.565Z,92092.25
2022-08-21T21:31:52.713Z,92075.88
2022-08-21T21:34:23.861Z,92085.59
2022-08-21T21:37:02.033Z,92082.63
2022-08-21T21:39:36.093Z,92080.63
2022-08-21T21:42:41.960Z,92079.44
2022-08-21T21:45:27.233Z,92079.16
2022-08-21T21:48:11.813Z,92086.63
2022-08-21T21:53:51.615Z,92080.78
2022-08-21T21:56:29.957Z,92072.41
2022-08-21T21:59:29.675Z,92074.81
2022-08-21T22:02:08.221Z,92083.16
2022-08-21T22:04:52.300Z,92072.97
2022-08-21T22:07:32.025Z,92079.63
2022-08-21T22:13:26.222Z,92081.56
2022-08-21T22:15:56.855Z,92086.88
2022-08-21T22:18:31.566Z,92079.75
2022-08-21T22:21:06.811Z,92079.28
2022-08-21T22:23:42.297Z,92080.28
2022-08-21T22:26:19.857Z,92078.19
2022-08-21T22:28:52.939Z,92079.56
2022-08-21T22:31:26.154Z,92081.00
2022-08-21T22:34:17.990Z,92070.88
2022-08-21T22:37:00.237Z,92071.97
2022-08-21T22:42:29.094Z,92062.88
2022-08-21T22:45:02.548Z,92053.81
2022-08-21T22:47:39.661Z,92050.56
2022-08-21T22:50:22.002Z,92045.91
2022-08-21T22:52:57.135Z,92053.94
2022-08-21T22:55:32.401Z,92052.66
2022-08-21T22:58:11.705Z,92056.66
2022-08-21T23:00:56.612Z,92059.19
2022-08-21T23:03:35.020Z,92069.13
2022-08-21T23:06:24.774Z,92073.84
2022-08-21T23:08:56.639Z,92070.06
2022-08-21T23:11:41.195Z,92071.09
2022-08-21T23:14:14.583Z,92080.03
2022-08-21T23:16:54.457Z,92078.72
2022-08-21T23:19:43.244Z,92075.91
2022-08-21T23:22:38.416Z,92072.59
2022-08-21T23:25:42.440Z,92068.00
2022-08-21T23:28:27.163Z,92076.31
2022-08-21T23:31:12.041Z,92081.50
2022-08-21T23:37:25.941Z,92081.50
2022-08-21T23:40:33.712Z,92087.56
2022-08-21T23:43:24.770Z,92082.75
2022-08-21T23:46:21.364Z,92082.75
2022-08-21T23:49:20.171Z,92081.88
2022-08-21T23:52:00.664Z,92067.09
2022-08-21T23:54:42.503Z,92071.69
2022-08-21T23:57:31.469Z,92067.69
